createdAt,value
2022-12-23T00:01:13.723Z,44.58
2022-12-23T00:03:40.744Z,49.97
2022-12-23T00:06:13.821Z,47.97
2022-12-23T00:08:41.501Z,54.58
2022-12-23T00:11:14.183Z,49.30
2022-12-23T00:13:59.500Z,55.00
2022-12-23T00:16:26.717Z,49.67
2022-12-23T00:18:54.426Z,47.17
2022-12-23T00:21:22.170Z,51.53
2022-12-23T00:23:51.295Z,65.25
2022-12-23T00:26:24.752Z,49.00
2022-12-23T00:28:52.387Z,49.50
2022-12-23T00:31:19.935Z,45.95
2022-12-23T00:33:49.360Z,52.83
2022-12-23T00:36:27.988Z,52.05
2022-12-23T00:39:15.141Z,47.45
2022-12-23T00:42:00.418Z,53.95
2022-12-23T00:44:27.662Z,53.55
2022-12-23T00:46:54.493Z,55.67
2022-12-23T00:49:40.762Z,47.60
2022-12-23T00:52:10.476Z,45.60
2022-12-23T00:54:37.183Z,51.90
2022-12-23T00:57:04.362Z,46.55
2022-12-23T00:59:31.114Z,46.65
2022-12-23T01:02:16.344Z,45.00
2022-12-23T01:05:01.610Z,48.92
2022-12-23T01:07:28.343Z,51.50
2022-12-23T01:09:55.096Z,63.25
2022-12-23T01:12:21.764Z,49.28
2022-12-23T01:14:48.729Z,58.95
2022-12-23T01:17:15.671Z,51.88
2022-12-23T01:19:42.480Z,40.20
2022-12-23T01:22:09.510Z,44.50
2022-12-23T01:24:36.202Z,61.75
2022-12-23T01:27:02.901Z,47.63
2022-12-23T01:29:29.877Z,50.72
2022-12-23T01:31:56.917Z,56.30
2022-12-23T01:34:23.745Z,52.83
2022-12-23T01:36:50.513Z,59.33
2022-12-23T01:39:17.324Z,51.50
2022-12-23T01:42:03.018Z,55.30
2022-12-23T01:44:54.149Z,57.15
2022-12-23T01:47:23.566Z,54.42
2022-12-23T01:49:53.396Z,63.40
2022-12-23T01:52:20.283Z,55.45
2022-12-23T01:54:47.935Z,55.60
2022-12-23T01:57:14.751Z,57.55
2022-12-23T02:00:09.576Z,67.20
2022-12-23T02:02:56.016Z,52.95
2022-12-23T02:05:24.152Z,55.42
2022-12-23T02:08:12.108Z,46.92
2022-12-23T02:10:56.446Z,50.90
2022-12-23T02:14:17.356Z,51.55
2022-12-23T02:19:57.299Z,55.35
2022-12-23T02:22:52.351Z,62.17
2022-12-23T02:25:56.586Z,62.08
2022-12-23T02:28:47.695Z,62.90
2022-12-23T02:31:22.207Z,88.75
2022-12-23T02:34:20.293Z,72.53
2022-12-23T02:37:00.126Z,63.20
2022-12-23T02:39:46.019Z,58.10
2022-12-23T02:42:17.819Z,53.42
2022-12-23T02:45:07.990Z,65.78
2022-12-23T02:47:46.707Z,78.53
2022-12-23T02:50:27.155Z,62.00
2022-12-23T02:52:57.910Z,65.35
2022-12-23T02:57:57.187Z,63.13
2022-12-23T03:00:24.019Z,64.72
2022-12-23T03:02:51.028Z,61.42
2022-12-23T03:05:28.316Z,68.65
2022-12-23T03:07:59.655Z,50.35
2022-12-23T03:10:54.425Z,63.60
2022-12-23T03:13:31.487Z,60.70
2022-12-23T03:16:24.259Z,62.28
2022-12-23T03:19:09.054Z,71.38
2022-12-23T03:21:48.393Z,65.13
2022-12-23T03:24:24.537Z,76.80
2022-12-23T03:27:00.505Z,61.60
2022-12-23T03:29:43.599Z,76.50
2022-12-23T03:32:14.008Z,54.70
2022-12-23T03:34:45.387Z,64.78
2022-12-23T03:37:14.755Z,74.05
2022-12-23T03:39:48.410Z,73.10
2022-12-23T03:42:28.720Z,67.95
2022-12-23T03:45:36.227Z,56.53
2022-12-23T03:47:55.368Z,61.45
2022-12-23T03:50:24.778Z,54.53
2022-12-23T03:52:56.302Z,60.45
2022-12-23T03:55:32.845Z,55.92
2022-12-23T03:58:12.025Z,60.20
2022-12-23T04:00:47.455Z,59.75
2022-12-23T04:03:29.013Z,58.58
2022-12-23T04:05:59.915Z,55.50
2022-12-23T04:08:32.490Z,59.25
2022-12-23T04:11:00.550Z,51.72
2022-12-23T04:13:28.633Z,55.42
2022-12-23T04:15:57.455Z,58.70
2022-12-23T04:18:24.244Z,58.58
2022-12-23T04:20:50.896Z,59.13
2022-12-23T04:23:17.811Z,53.33
2022-12-23T04:25:44.500Z,58.70
2022-12-23T04:28:11.350Z,59.95
2022-12-23T04:30:38.322Z,57.53
2022-12-23T04:33:05.405Z,52.72
2022-12-23T04:35:32.101Z,59.22
2022-12-23T04:37:58.785Z,52.42
2022-12-23T04:40:25.549Z,50.45
2022-12-23T04:42:52.152Z,50.58
2022-12-23T04:45:18.985Z,53.03
2022-12-23T04:47:45.654Z,51.05
2022-12-23T04:50:16.504Z,55.13
2022-12-23T04:52:44.233Z,51.83
2022-12-23T04:55:11.727Z,55.47
2022-12-23T04:57:38.563Z,50.63
2022-12-23T05:00:06.143Z,50.67
2022-12-23T05:02:32.953Z,63.83
2022-12-23T05:04:59.652Z,62.72
2022-12-23T05:07:26.383Z,54.55
2022-12-23T05:09:53.673Z,78.35
2022-12-23T05:12:20.362Z,49.42
2022-12-23T05:14:47.285Z,51.20
2022-12-23T05:17:14.111Z,69.82
2022-12-23T05:19:40.770Z,50.08
2022-12-23T05:22:07.528Z,49.97
2022-12-23T05:24:34.575Z,122.78
2022-12-23T05:27:01.222Z,97.00
2022-12-23T05:29:28.201Z,103.32
2022-12-23T05:31:54.981Z,188.52
2022-12-23T05:34:21.717Z,87.60
2022-12-23T05:36:48.566Z,56.80
2022-12-23T05:39:15.363Z,50.55
2022-12-23T05:41:42.008Z,44.70
2022-12-23T05:44:08.760Z,45.47
2022-12-23T05:46:35.651Z,48.65
2022-12-23T05:49:02.532Z,59.45
2022-12-23T05:51:29.279Z,92.22
2022-12-23T05:53:55.952Z,59.83
2022-12-23T05:56:22.665Z,113.28
2022-12-23T05:58:49.496Z,147.65
2022-12-23T06:01:16.252Z,169.40
2022-12-23T06:03:43.129Z,64.82
2022-12-23T06:06:09.966Z,229.65
2022-12-23T06:08:36.713Z,186.50
2022-12-23T06:11:06.642Z,56.10
2022-12-23T06:13:33.439Z,78.07
2022-12-23T06:16:00.123Z,136.40
2022-12-23T06:18:26.730Z,62.35
2022-12-23T06:20:53.363Z,71.13
2022-12-23T06:23:20.198Z,107.43
2022-12-23T06:25:46.869Z,56.35
2022-12-23T06:28:13.671Z,134.30
2022-12-23T06:30:40.313Z,255.23
2022-12-23T06:33:07.029Z,137.43
2022-12-23T06:35:33.815Z,66.82
2022-12-23T06:38:00.725Z,250.63
2022-12-23T06:40:29.227Z,259.23
2022-12-23T06:42:56.137Z,87.13
2022-12-23T06:45:22.852Z,173.52
2022-12-23T06:47:49.542Z,198.48
2022-12-23T06:50:16.517Z,161.85
2022-12-23T06:52:43.476Z,191.15
2022-12-23T06:55:10.117Z,289.45
2022-12-23T06:57:36.900Z,179.95
2022-12-23T07:00:05.140Z,113.95
2022-12-23T07:02:33.026Z,74.55
2022-12-23T07:04:59.847Z,197.93
2022-12-23T07:07:26.718Z,195.65
2022-12-23T07:09:53.333Z,162.30
2022-12-23T07:12:20.126Z,183.18
2022-12-23T07:14:46.901Z,233.38
2022-12-23T07:17:13.622Z,237.77
2022-12-23T07:19:41.830Z,295.70
2022-12-23T07:22:10.290Z,217.57
2022-12-23T07:24:37.750Z,236.05
2022-12-23T07:27:04.986Z,178.32
2022-12-23T07:29:31.792Z,133.23
2022-12-23T07:31:58.588Z,276.55
2022-12-23T07:34:25.439Z,235.13
2022-12-23T07:36:52.198Z,160.93
2022-12-23T07:39:18.847Z,126.15
2022-12-23T07:41:45.798Z,198.52
2022-12-23T07:44:12.759Z,96.00
2022-12-23T07:46:39.771Z,156.85
2022-12-23T07:49:06.808Z,104.38
2022-12-23T07:51:33.569Z,73.75
2022-12-23T07:54:00.301Z,194.95
2022-12-23T07:56:27.403Z,169.73
2022-12-23T07:58:54.628Z,108.10
2022-12-23T08:01:22.019Z,82.03
2022-12-23T08:03:49.100Z,174.32
2022-12-23T08:06:16.708Z,139.68
2022-12-23T08:08:45.611Z,149.55
2022-12-23T08:11:13.870Z,162.77
2022-12-23T08:13:42.087Z,170.00
2022-12-23T08:16:09.990Z,135.07
2022-12-23T08:18:39.280Z,68.30
2022-12-23T08:21:14.945Z,180.23
2022-12-23T08:23:43.626Z,64.22
2022-12-23T08:26:12.944Z,86.10
2022-12-23T08:28:41.509Z,97.80
2022-12-23T08:31:09.670Z,71.75
2022-12-23T08:33:38.212Z,163.57
2022-12-23T08:36:06.867Z,62.40
2022-12-23T08:38:33.887Z,81.80
2022-12-23T08:41:01.045Z,52.10
2022-12-23T08:43:33.610Z,79.55
2022-12-23T08:46:02.541Z,47.55
2022-12-23T08:48:29.303Z,60.88
2022-12-23T08:50:56.000Z,111.68
2022-12-23T08:53:22.884Z,93.43
2022-12-23T08:55:49.631Z,104.10
2022-12-23T08:58:16.269Z,100.63
2022-12-23T09:00:43.254Z,218.95
2022-12-23T09:03:10.158Z,94.15
2022-12-23T09:05:41.960Z,71.57
2022-12-23T09:08:09.217Z,94.72
2022-12-23T09:10:44.098Z,108.32
2022-12-23T09:13:15.004Z,101.25
2022-12-23T09:15:45.671Z,70.35
2022-12-23T09:18:12.726Z,99.82
2022-12-23T09:20:39.462Z,72.05
2022-12-23T09:23:06.651Z,57.60
2022-12-23T09:25:35.421Z,78.35
2022-12-23T09:28:02.455Z,120.45
2022-12-23T09:30:29.387Z,70.63
2022-12-23T09:32:56.583Z,62.30
2022-12-23T09:35:23.392Z,48.40
2022-12-23T09:37:50.121Z,65.38
2022-12-23T09:40:21.301Z,65.93
2022-12-23T09:43:06.999Z,33.47
2022-12-23T09:45:40.475Z,35.95
2022-12-23T09:48:14.993Z,36.05
2022-12-23T09:50:43.220Z,34.63
2022-12-23T09:53:20.982Z,40.67
2022-12-23T09:56:16.129Z,31.90
2022-12-23T09:59:04.753Z,41.78
2022-12-23T10:01:44.567Z,32.72
2022-12-23T10:04:20.642Z,36.47
2022-12-23T10:06:56.365Z,37.28
2022-12-23T10:09:27.862Z,31.15
2022-12-23T10:45:56.789Z,30.08
2022-12-23T10:48:48.841Z,34.47
2022-12-23T10:51:25.197Z,32.97
2022-12-23T10:54:24.085Z,32.85
2022-12-23T10:56:50.934Z,30.75
2022-12-23T10:59:24.020Z,31.25
2022-12-23T11:01:55.419Z,29.20
2022-12-23T11:04:39.708Z,31.38
2022-12-23T11:07:42.997Z,28.13
2022-12-23T11:10:03.337Z,28.05
2022-12-23T11:12:42.581Z,29.15
2022-12-23T11:15:28.462Z,29.67
2022-12-23T11:18:14.271Z,31.17
2022-12-23T11:20:43.109Z,32.00
2022-12-23T11:23:28.697Z,28.75
2022-12-23T11:26:06.342Z,28.60
2022-12-23T11:28:37.107Z,30.45
2022-12-23T11:31:11.791Z,32.17
2022-12-23T11:33:45.497Z,32.80
2022-12-23T11:36:12.129Z,29.52
2022-12-23T11:38:52.504Z,28.60
2022-12-23T11:41:28.046Z,29.80
2022-12-23T11:44:17.721Z,31.83
2022-12-23T11:46:44.574Z,32.45
2022-12-23T11:49:27.536Z,27.60
2022-12-23T11:52:05.207Z,28.40
2022-12-23T11:54:33.857Z,28.95
2022-12-23T11:57:04.260Z,26.05
2022-12-23T11:59:38.482Z,26.10
2022-12-23T12:02:21.811Z,29.20
2022-12-23T12:04:57.247Z,26.10
2022-12-23T12:07:24.296Z,24.88
2022-12-23T12:09:51.407Z,26.77
2022-12-23T12:12:21.471Z,26.52
2022-12-23T12:14:51.491Z,26.20
2022-12-23T12:17:25.668Z,26.65
2022-12-23T12:20:00.591Z,26.58
2022-12-23T12:22:41.900Z,25.13
2022-12-23T12:25:18.129Z,23.83
2022-12-23T12:27:52.624Z,23.98
2022-12-23T12:30:20.931Z,21.83
2022-12-23T12:33:15.921Z,24.08
2022-12-23T12:35:53.975Z,23.92
2022-12-23T12:38:30.188Z,26.45
2022-12-23T12:41:16.423Z,23.88
2022-12-23T12:44:18.511Z,27.75
2022-12-23T12:46:52.424Z,25.20
2022-12-23T12:49:22.060Z,23.20
2022-12-23T12:52:04.155Z,21.63
2022-12-23T12:54:37.727Z,23.92
2022-12-23T12:57:04.680Z,23.65
2022-12-23T12:59:36.957Z,22.25
2022-12-23T13:02:28.730Z,22.10
2022-12-23T13:05:07.754Z,24.02
2022-12-23T13:07:46.911Z,22.15
2022-12-23T13:10:25.050Z,20.98
2022-12-23T13:13:21.057Z,24.00
2022-12-23T13:15:52.189Z,21.95
2022-12-23T13:18:44.663Z,22.23
2022-12-23T13:21:23.541Z,22.75
2022-12-23T13:24:14.919Z,23.13
2022-12-23T13:27:16.669Z,23.25
2022-12-23T13:29:43.490Z,24.73
2022-12-23T13:32:24.399Z,23.38
2022-12-23T13:35:25.332Z,25.13
2022-12-23T13:38:33.812Z,25.98
2022-12-23T13:41:28.003Z,26.23
2022-12-23T13:44:01.909Z,26.30
2022-12-23T13:46:34.918Z,25.40
2022-12-23T13:49:10.336Z,25.30
2022-12-23T13:52:09.190Z,26.17
2022-12-23T13:55:08.701Z,26.38
2022-12-23T13:57:56.944Z,29.30
2022-12-23T14:00:25.262Z,27.10
2022-12-23T14:03:17.157Z,27.77
2022-12-23T14:05:46.527Z,25.73
2022-12-23T14:08:19.128Z,27.98
2022-12-23T14:10:56.497Z,29.33
2022-12-23T14:13:30.025Z,25.48
2022-12-23T14:16:13.390Z,29.88
2022-12-23T14:18:59.256Z,29.17
2022-12-23T14:21:48.519Z,27.77
2022-12-23T14:24:34.045Z,27.40
2022-12-23T14:27:13.091Z,27.08
2022-12-23T14:29:43.035Z,31.20
2022-12-23T14:32:28.041Z,28.17
2022-12-23T14:35:17.917Z,29.40
2022-12-23T14:38:22.391Z,30.67
2022-12-23T14:40:56.888Z,31.60
2022-12-23T14:43:25.380Z,31.83
2022-12-23T14:45:58.102Z,31.60
2022-12-23T14:48:37.094Z,34.00
2022-12-23T14:51:10.131Z,30.88
2022-12-23T14:53:57.765Z,34.92
2022-12-23T14:56:47.534Z,32.67
2022-12-23T14:59:27.112Z,34.15
2022-12-23T15:02:17.087Z,35.08
2022-12-23T15:04:49.370Z,33.63
2022-12-23T15:07:38.090Z,32.03
2022-12-23T15:10:26.309Z,29.77
2022-12-23T15:12:56.965Z,30.85
2022-12-23T15:15:27.048Z,31.38
2022-12-23T15:18:10.759Z,34.63
2022-12-23T15:20:37.687Z,32.47
2022-12-23T15:23:14.436Z,32.60
2022-12-23T15:25:45.800Z,32.85
2022-12-23T15:28:21.774Z,32.35
2022-12-23T15:30:52.383Z,31.27
2022-12-23T15:34:00.891Z,32.25
2022-12-23T15:36:10.818Z,32.45
2022-12-23T15:38:39.226Z,31.80
2022-12-23T15:41:15.408Z,32.47
2022-12-23T15:43:43.587Z,33.10
2022-12-23T15:46:28.671Z,33.63
2022-12-23T15:48:57.289Z,32.80
2022-12-23T15:51:57.732Z,32.90
2022-12-23T15:54:22.011Z,32.42
2022-12-23T15:56:52.266Z,32.28
2022-12-23T15:59:29.544Z,33.63
2022-12-23T16:01:56.770Z,31.88
2022-12-23T16:04:29.245Z,34.42
2022-12-23T16:06:56.429Z,32.80
2022-12-23T16:09:31.841Z,34.40
2022-12-23T16:12:02.175Z,33.47
2022-12-23T16:14:35.036Z,37.22
2022-12-23T16:17:12.965Z,36.72
2022-12-23T16:19:53.007Z,34.13
2022-12-23T16:22:36.277Z,37.05
2022-12-23T16:25:32.878Z,37.03
2022-12-23T16:28:04.844Z,35.45
2022-12-23T16:30:37.194Z,32.53
2022-12-23T16:33:25.563Z,36.03
2022-12-23T16:35:54.582Z,33.83
2022-12-23T16:38:26.749Z,31.77
2022-12-23T16:40:56.217Z,34.50
2022-12-23T16:43:25.110Z,37.65
2022-12-23T16:45:55.261Z,35.20
2022-12-23T16:48:35.341Z,35.80
2022-12-23T16:51:06.118Z,32.13
2022-12-23T16:53:32.889Z,32.80
2022-12-23T16:56:01.109Z,32.25
2022-12-23T16:58:29.700Z,30.95
2022-12-23T17:00:56.725Z,34.58
2022-12-23T17:03:23.608Z,32.28
2022-12-23T17:05:50.442Z,30.23
2022-12-23T17:08:17.207Z,35.88
2022-12-23T17:10:47.475Z,32.83
2022-12-23T17:13:17.959Z,32.60
2022-12-23T17:18:17.452Z,29.88
2022-12-23T17:20:48.270Z,31.70
2022-12-23T17:23:30.088Z,32.80
2022-12-23T17:25:57.265Z,31.83
2022-12-23T17:28:30.941Z,31.95
2022-12-23T17:30:59.011Z,32.72
2022-12-23T17:33:29.627Z,32.80
2022-12-23T17:35:56.553Z,30.83
2022-12-23T17:38:23.830Z,32.92
2022-12-23T17:40:51.226Z,33.58
2022-12-23T17:43:18.864Z,31.55
2022-12-23T17:45:47.479Z,34.22
2022-12-23T17:48:20.622Z,31.42
2022-12-23T17:50:49.231Z,32.13
2022-12-23T17:53:18.458Z,31.83
2022-12-23T17:55:45.906Z,32.45
2022-12-23T17:58:14.220Z,32.80
2022-12-23T18:00:41.264Z,30.52
2022-12-23T18:03:22.380Z,32.50
2022-12-23T18:05:49.722Z,32.88
2022-12-23T18:08:17.898Z,31.58
2022-12-23T18:10:46.030Z,31.58
2022-12-23T18:13:19.266Z,32.40
2022-12-23T18:15:46.981Z,33.15
2022-12-23T18:18:37.725Z,32.22
2022-12-23T18:21:16.183Z,39.97
2022-12-23T18:23:42.897Z,182.80
2022-12-23T18:26:15.150Z,33.10
2022-12-23T18:28:42.821Z,46.38
2022-12-23T18:31:18.686Z,35.13
2022-12-23T18:33:46.135Z,32.17
2022-12-23T18:36:20.603Z,26.80
2022-12-23T18:38:47.617Z,28.30
2022-12-23T18:41:14.364Z,32.28
2022-12-23T18:43:41.185Z,27.55
2022-12-23T18:46:08.090Z,26.60
2022-12-23T18:48:34.871Z,28.27
2022-12-23T18:51:02.918Z,31.25
2022-12-23T18:53:29.751Z,30.13
2022-12-23T18:55:56.479Z,28.73
2022-12-23T18:58:23.456Z,30.50
2022-12-23T19:00:52.801Z,28.60
2022-12-23T19:03:26.454Z,29.33
2022-12-23T19:05:55.130Z,26.10
2022-12-23T19:08:26.804Z,27.23
2022-12-23T19:10:55.136Z,27.98
2022-12-23T19:13:22.131Z,27.42
2022-12-23T19:15:48.951Z,27.98
2022-12-23T19:18:18.875Z,29.92
2022-12-23T19:20:46.857Z,25.90
2022-12-23T19:23:14.795Z,26.35
2022-12-23T19:25:44.213Z,26.30
2022-12-23T19:28:13.179Z,27.35
2022-12-23T19:30:41.719Z,25.50
2022-12-23T19:33:09.299Z,26.88
2022-12-23T19:35:36.782Z,26.17
2022-12-23T19:38:04.067Z,25.30
2022-12-23T19:40:31.961Z,26.42
2022-12-23T19:42:58.899Z,25.30
2022-12-23T19:45:25.521Z,24.63
2022-12-23T19:47:53.311Z,28.05
2022-12-23T19:50:22.331Z,25.38
2022-12-23T19:52:50.211Z,24.08
2022-12-23T19:55:16.951Z,24.55
2022-12-23T19:57:43.913Z,27.90
2022-12-23T20:00:11.121Z,25.92
2022-12-23T20:02:38.212Z,26.30
2022-12-23T20:05:05.662Z,28.65
2022-12-23T20:07:32.331Z,28.73
2022-12-23T20:09:59.196Z,29.15
2022-12-23T20:12:27.975Z,29.90
2022-12-23T20:14:54.737Z,29.10
2022-12-23T20:17:21.513Z,31.73
2022-12-23T20:19:48.595Z,36.70
2022-12-23T20:22:15.299Z,31.95
2022-12-23T20:24:42.020Z,29.23
2022-12-23T20:27:11.996Z,31.50
2022-12-23T20:29:39.881Z,33.65
2022-12-23T20:32:06.668Z,32.92
2022-12-23T20:34:38.580Z,31.45
2022-12-23T20:37:06.576Z,31.55
2022-12-23T20:39:33.409Z,30.80
2022-12-23T20:42:00.133Z,32.63
2022-12-23T20:44:36.214Z,36.45
2022-12-23T20:47:05.692Z,31.30
2022-12-23T20:49:32.508Z,33.90
2022-12-23T20:51:59.338Z,32.03
2022-12-23T20:54:32.142Z,31.10
2022-12-23T20:57:00.554Z,32.08
2022-12-23T20:59:27.427Z,31.10
2022-12-23T21:01:54.213Z,31.10
2022-12-23T21:04:22.567Z,31.80
2022-12-23T21:06:49.961Z,31.17
2022-12-23T21:09:17.324Z,29.67
2022-12-23T21:11:46.541Z,32.83
2022-12-23T21:14:14.570Z,28.80
2022-12-23T21:16:41.795Z,31.33
2022-12-23T21:19:14.121Z,33.95
2022-12-23T21:21:41.130Z,30.27
2022-12-23T21:24:08.093Z,31.58
2022-12-23T21:26:35.001Z,31.30
2022-12-23T21:29:04.359Z,29.80
2022-12-23T21:31:34.123Z,30.13
2022-12-23T21:34:01.160Z,29.60
2022-12-23T21:36:31.272Z,28.73
2022-12-23T21:38:59.399Z,28.95
2022-12-23T21:41:29.124Z,27.60
2022-12-23T21:43:57.482Z,28.80
2022-12-23T21:46:25.543Z,25.67
2022-12-23T21:48:52.823Z,28.73
2022-12-23T21:51:22.506Z,29.08
2022-12-23T21:53:51.831Z,27.10
2022-12-23T21:56:24.490Z,26.50
2022-12-23T21:58:58.472Z,28.70
2022-12-23T22:01:26.063Z,28.13
2022-12-23T22:03:53.750Z,26.98
2022-12-23T22:06:23.367Z,26.55
2022-12-23T22:08:52.311Z,26.33
2022-12-23T22:11:24.932Z,26.13
2022-12-23T22:13:52.316Z,29.23
2022-12-23T22:16:22.311Z,25.38
2022-12-23T22:18:50.135Z,28.40
2022-12-23T22:21:20.210Z,27.42
2022-12-23T22:23:47.629Z,27.40
2022-12-23T22:26:22.300Z,26.70
2022-12-23T22:28:52.526Z,28.98
2022-12-23T22:31:22.321Z,24.98
2022-12-23T22:33:49.147Z,26.35
2022-12-23T22:36:17.034Z,27.73
2022-12-23T22:38:44.374Z,27.05
2022-12-23T22:41:11.175Z,27.13
2022-12-23T22:43:38.200Z,24.60
2022-12-23T22:46:05.418Z,28.65
2022-12-23T22:48:32.515Z,24.27
2022-12-23T22:51:09.738Z,25.70
2022-12-23T22:53:36.889Z,22.60
2022-12-23T22:56:05.290Z,22.73
2022-12-23T22:58:33.313Z,23.63
2022-12-23T23:01:00.818Z,23.33
2022-12-23T23:03:28.748Z,25.60
2022-12-23T23:06:01.662Z,24.92
2022-12-23T23:08:29.733Z,24.08
2022-12-23T23:11:02.323Z,23.05
2022-12-23T23:13:32.556Z,22.73
2022-12-23T23:16:00.470Z,23.00
2022-12-23T23:18:28.544Z,22.42
2022-12-23T23:20:55.665Z,22.85
2022-12-23T23:23:22.701Z,25.00
2022-12-23T23:25:49.532Z,24.42
2022-12-23T23:28:16.349Z,23.15
2022-12-23T23:30:43.049Z,22.90
2022-12-23T23:33:10.807Z,23.00
2022-12-23T23:35:37.602Z,24.17
2022-12-23T23:38:04.285Z,23.73
2022-12-23T23:40:31.417Z,24.45
2022-12-23T23:42:58.076Z,25.20
2022-12-23T23:45:24.980Z,23.60
2022-12-23T23:47:52.141Z,25.30
2022-12-23T23:50:19.027Z,24.35
2022-12-23T23:52:45.862Z,24.98
2022-12-23T23:55:12.935Z,24.70
2022-12-23T23:57:39.583Z,27.15
